Time;durP1;ratioP1;P1;durP2;ratioP2;P2;SDS_P1;SDS_P2;PMS_P1;PMS_P2;Temp;Humidity;BMP_temperature;BMP_pressure;BME280_temperature;BME280_humidity;BME280_pressure;Samples;Min_cycle;Max_cycle;Signal;HPM_P1;HPM_P2
2022/07/17 00:00:54;;;;;;;1.45;1.35;;;;;;;18.70;61.57;100351.20;1722330;83;21091;-72
2022/07/17 00:03:20;;;;;;;;;;;;;;;18.65;62.21;100351.94;1711025;84;21484;-72
2022/07/17 00:05:47;;;;;;;2.45;2.02;;;;;;;18.62;63.06;100348.36;1680410;84;20150;-73
2022/07/17 00:08:15;;;;;;;1.70;1.47;;;;;;;18.55;64.20;100349.03;1696596;83;21174;-73
2022/07/17 00:10:43;;;;;;;2.83;1.12;;;;;;;18.52;64.88;100339.55;1700739;84;21108;-70
2022/07/17 00:13:11;;;;;;;3.37;2.35;;;;;;;18.51;65.41;100347.34;1741309;80;21060;-72
2022/07/17 00:15:37;;;;;;;3.85;1.22;;;;;;;18.55;66.17;100355.77;1715433;82;21078;-73
2022/07/17 00:18:06;;;;;;;1.55;1.40;;;;;;;18.61;66.02;100349.41;1703224;83;21041;-71
2022/07/17 00:20:35;;;;;;;1.75;1.15;;;;;;;18.57;65.34;100342.34;1726460;81;20974;-73
2022/07/17 00:23:01;;;;;;;3.72;1.47;;;;;;;18.55;65.73;100343.09;1722680;81;20987;-71
2022/07/17 00:25:28;;;;;;;2.35;0.45;;;;;;;18.53;65.67;100344.41;1762705;80;21070;-73
2022/07/17 00:27:54;;;;;;;1.55;0.85;;;;;;;18.51;65.22;100354.09;1761382;80;21021;-73
2022/07/17 00:30:22;;;;;;;1.80;1.00;;;;;;;18.51;64.48;100355.97;1761486;80;21505;-73
2022/07/17 00:32:49;;;;;;;2.05;1.40;;;;;;;18.48;64.42;100355.39;1762909;80;21528;-72
2022/07/17 00:35:15;;;;;;;2.05;1.10;;;;;;;18.46;64.61;100350.77;1736807;81;20994;-73
2022/07/17 00:37:44;;;;;;;;;;;;;;;18.44;64.67;100340.75;1737018;81;20975;-73
2022/07/17 00:40:15;;;;;;;2.25;1.42;;;;;;;18.43;65.00;100336.39;1724887;81;20142;-73
2022/07/17 00:42:42;;;;;;;2.62;1.15;;;;;;;18.34;65.34;100332.44;1731859;81;20975;-74
2022/07/17 00:45:11;;;;;;;2.47;0.88;;;;;;;18.34;65.62;100331.09;1745414;80;20964;-72
2022/07/17 00:48:00;;;;;;;1.27;0.90;;;;;;;18.35;65.86;100321.95;1719481;82;21086;-73
2022/07/17 00:50:32;;;;;;;1.75;1.42;;;;;;;18.39;65.88;100317.70;1724777;81;21053;-72
2022/07/17 00:52:58;;;;;;;3.00;0.80;;;;;;;18.34;66.07;100294.66;1726831;81;21094;-72
2022/07/17 00:55:27;;;;;;;1.67;1.10;;;;;;;18.40;66.11;100296.42;1730727;81;21058;-72
2022/07/17 00:57:55;;;;;;;3.62;0.80;;;;;;;18.41;65.95;100316.93;1730150;81;21078;-72
2022/07/17 01:00:23;;;;;;;2.75;1.15;;;;;;;18.44;66.07;100331.81;1730896;80;21022;-73
2022/07/17 01:02:54;;;;;;;1.22;0.80;;;;;;;18.45;66.04;100328.87;1754361;80;21014;-74
2022/07/17 01:05:22;;;;;;;2.45;0.75;;;;;;;18.44;66.03;100328.60;1756270;80;20986;-74
2022/07/17 01:07:49;;;;;;;2.35;1.07;;;;;;;18.44;66.21;100327.77;1760634;80;20930;-73
2022/07/17 01:10:17;;;;;;;0.82;0.70;;;;;;;18.41;66.12;100314.23;1755994;80;21029;-74
2022/07/17 01:12:46;;;;;;;2.83;1.35;;;;;;;18.41;66.15;100308.84;1758178;80;21005;-72
2022/07/17 01:15:15;;;;;;;3.95;0.80;;;;;;;18.44;66.11;100312.41;1753397;80;21489;-72
2022/07/17 01:17:43;;;;;;;3.12;1.30;;;;;;;18.46;66.03;100322.97;1759513;80;21002;-72
2022/07/17 01:20:11;;;;;;;4.20;0.90;;;;;;;18.47;66.05;100318.66;1757837;80;21226;-72
2022/07/17 01:22:44;;;;;;;2.50;0.68;;;;;;;18.48;66.03;100307.36;1758809;80;21049;-72
2022/07/17 01:25:11;;;;;;;1.30;0.80;;;;;;;18.48;65.92;100303.30;1754825;80;21049;-73
2022/07/17 01:27:42;;;;;;;1.22;0.60;;;;;;;18.47;65.86;100306.52;1760117;80;21065;-74
2022/07/17 01:30:10;;;;;;;2.83;0.95;;;;;;;18.44;65.75;100294.87;1760431;80;21109;-73
2022/07/17 01:32:40;;;;;;;3.87;0.78;;;;;;;18.44;65.98;100295.38;1759389;80;21018;-72
2022/07/17 01:35:11;;;;;;;4.90;0.88;;;;;;;18.40;65.94;100292.38;1760011;80;20974;-72
2022/07/17 01:37:40;;;;;;;2.42;0.85;;;;;;;18.38;66.13;100293.11;1757941;80;21005;-72
2022/07/17 01:40:09;;;;;;;3.08;0.70;;;;;;;18.33;66.27;100297.09;1744916;80;20942;-72
2022/07/17 01:42:38;;;;;;;6.03;1.17;;;;;;;18.31;66.26;100297.02;1759402;80;21565;-74
2022/07/17 01:45:06;;;;;;;0.90;0.42;;;;;;;18.31;66.27;100296.52;1760692;80;21411;-73
2022/07/17 01:47:34;;;;;;;1.92;0.62;;;;;;;18.29;66.40;100295.39;1753709;80;21011;-73
2022/07/17 01:50:02;;;;;;;1.75;0.75;;;;;;;18.29;66.34;100306.73;1756723;80;21116;-72
2022/07/17 01:52:28;;;;;;;2.15;1.10;;;;;;;18.29;66.17;100304.03;1757365;80;21530;-72
2022/07/17 01:54:55;;;;;;;1.25;0.65;;;;;;;18.29;66.29;100298.63;1756214;80;21010;-73
2022/07/17 01:57:22;;;;;;;2.20;0.72;;;;;;;18.31;66.64;100304.61;1755718;80;21520;-73
2022/07/17 01:59:48;;;;;;;0.98;0.75;;;;;;;18.31;66.70;100308.66;1757532;80;20998;-73
2022/07/17 02:02:15;;;;;;;1.30;0.68;;;;;;;18.31;66.27;100312.70;1756310;80;21040;-71
2022/07/17 02:04:42;;;;;;;0.90;0.40;;;;;;;18.32;66.30;100310.81;1747000;80;21044;-70
2022/07/17 02:07:09;;;;;;;1.65;0.60;;;;;;;18.31;66.24;100314.05;1759358;80;20987;-73
2022/07/17 02:09:37;;;;;;;2.42;1.37;;;;;;;18.29;66.22;100310.77;1759393;80;22333;-72
2022/07/17 02:12:05;;;;;;;0.68;0.40;;;;;;;18.27;66.14;100312.36;1759532;80;20997;-71
2022/07/17 02:14:32;;;;;;;3.60;0.80;;;;;;;18.28;66.16;100313.17;1759316;80;21604;-71
2022/07/17 02:16:59;;;;;;;0.90;0.50;;;;;;;18.30;66.04;100316.45;1760550;80;21493;-73
2022/07/17 02:19:25;;;;;;;1.05;0.23;;;;;;;18.32;66.05;100316.21;1758899;80;21099;-71
2022/07/17 02:21:53;;;;;;;2.70;0.65;;;;;;;18.33;66.02;100321.87;1739597;80;21584;-72
2022/07/17 02:24:22;;;;;;;2.95;0.80;;;;;;;18.34;66.21;100318.95;1760132;79;21089;-71
2022/07/17 02:26:49;;;;;;;1.25;0.90;;;;;;;18.31;66.25;100293.81;1757798;80;20994;-72
2022/07/17 02:29:15;;;;;;;1.47;0.50;;;;;;;18.27;66.16;100302.07;1755424;80;21557;-72
2022/07/17 02:31:42;;;;;;;1.42;0.45;;;;;;;18.26;66.48;100305.84;1760047;80;21498;-72
2022/07/17 02:34:08;;;;;;;2.58;0.88;;;;;;;18.27;66.36;100285.88;1750280;80;20994;-72
2022/07/17 02:36:35;;;;;;;2.17;0.45;;;;;;;18.26;66.28;100283.72;1758792;80;21069;-71
2022/07/17 02:39:02;;;;;;;0.72;0.40;;;;;;;18.26;66.58;100289.66;1761033;80;21090;-71
2022/07/17 02:41:28;;;;;;;1.98;0.68;;;;;;;18.26;66.80;100285.08;1759041;80;21056;-70
2022/07/17 02:43:56;;;;;;;0.90;0.72;;;;;;;18.27;66.60;100288.58;1760485;80;21037;-70
2022/07/17 02:46:22;;;;;;;;;;;;;;;18.23;66.51;100302.27;1762845;80;21596;-72
2022/07/17 02:48:48;;;;;;;4.15;0.82;;;;;;;18.20;66.55;100311.67;1747957;80;20133;-73
2022/07/17 02:51:14;;;;;;;1.95;0.72;;;;;;;18.13;66.89;100310.17;1755566;80;21116;-73
2022/07/17 02:53:41;;;;;;;2.58;0.55;;;;;;;18.13;66.94;100303.43;1750759;80;20982;-74
2022/07/17 02:56:09;;;;;;;2.45;1.00;;;;;;;18.12;66.94;100292.34;1760814;80;20982;-73
2022/07/17 02:58:36;;;;;;;1.90;0.80;;;;;;;18.12;66.98;100285.59;1752832;80;21021;-73
2022/07/17 03:01:02;;;;;;;;;;;;;;;18.14;66.86;100278.08;1761627;80;21497;-73
2022/07/17 03:03:29;;;;;;;1.75;0.33;;;;;;;18.19;66.60;100280.88;1751814;80;20430;-73
2022/07/17 03:05:55;;;;;;;2.17;0.35;;;;;;;18.16;66.84;100298.37;1760989;80;21013;-72
2022/07/17 03:08:22;;;;;;;1.00;0.70;;;;;;;18.20;66.90;100298.72;1759170;80;21442;-74
2022/07/17 03:10:49;;;;;;;0.70;0.37;;;;;;;18.22;66.58;100286.62;1760790;80;21053;-73
2022/07/17 03:13:16;;;;;;;2.52;0.57;;;;;;;18.21;66.28;100273.37;1758289;80;20993;-74
2022/07/17 03:15:42;;;;;;;;;;;;;;;18.20;66.22;100289.28;1763805;80;21537;-73
2022/07/17 03:18:08;;;;;;;2.17;1.03;;;;;;;18.19;66.30;100297.06;1760659;80;20155;-73
2022/07/17 03:20:35;;;;;;;1.75;0.65;;;;;;;18.12;66.40;100305.82;1760331;80;21009;-74
2022/07/17 03:23:01;;;;;;;0.57;0.57;;;;;;;18.13;66.53;100298.03;1760735;80;21588;-73
2022/07/17 03:25:29;;;;;;;0.85;0.50;;;;;;;18.12;65.67;100270.25;1758981;80;21166;-74
2022/07/17 03:27:55;;;;;;;3.02;0.40;;;;;;;18.09;65.51;100281.51;1737786;80;21502;-73
2022/07/17 03:30:21;;;;;;;0.82;0.60;;;;;;;18.05;65.89;100313.53;1754837;80;21057;-73
2022/07/17 03:32:47;;;;;;;1.95;0.62;;;;;;;18.04;66.14;100315.92;1756642;80;21002;-73
2022/07/17 03:35:13;;;;;;;0.57;0.57;;;;;;;18.07;65.71;100315.99;1760423;80;20977;-72
2022/07/17 03:37:43;;;;;;;1.37;0.60;;;;;;;18.10;65.54;100308.75;1755257;80;21526;-74
2022/07/17 03:40:11;;;;;;;0.60;0.30;;;;;;;18.13;65.54;100302.08;1760586;80;20970;-69
2022/07/17 03:42:39;;;;;;;2.80;1.65;;;;;;;18.15;65.23;100298.61;1760952;80;21062;-75
2022/07/17 03:45:07;;;;;;;2.05;0.85;;;;;;;18.15;65.97;100297.27;1760588;80;20947;-74
2022/07/17 03:47:34;;;;;;;1.15;0.98;;;;;;;18.18;66.20;100294.91;1760736;80;21029;-73
2022/07/17 03:50:00;;;;;;;;;;;;;;;18.23;65.85;100290.12;1753756;80;21170;-72
2022/07/17 03:52:27;;;;;;;2.43;0.73;;;;;;;18.28;64.99;100284.30;1756316;80;20165;-73
2022/07/17 03:54:52;;;;;;;;;;;;;;;18.23;64.80;100300.92;1761820;80;21029;-74
2022/07/17 03:57:19;;;;;;;2.70;0.50;;;;;;;18.22;65.15;100302.80;1756546;80;20188;-75
2022/07/17 03:59:45;;;;;;;;;;;;;;;18.19;65.47;100301.92;1763163;80;21189;-73
2022/07/17 04:02:11;;;;;;;1.65;0.50;;;;;;;18.23;65.28;100302.27;1760396;80;20182;-74
2022/07/17 04:04:37;;;;;;;1.57;0.60;;;;;;;18.21;65.25;100301.69;1751020;80;21120;-73
2022/07/17 04:07:03;;;;;;;2.85;0.45;;;;;;;18.26;65.29;100301.80;1760759;80;21037;-73
2022/07/17 04:09:29;;;;;;;2.62;0.75;;;;;;;18.32;65.31;100300.83;1760566;80;20970;-76
2022/07/17 04:11:56;;;;;;;4.80;0.62;;;;;;;18.39;65.80;100300.16;1760793;80;21049;-75
2022/07/17 04:14:22;;;;;;;1.57;0.55;;;;;;;18.52;65.37;100309.86;1750246;80;21501;-75
2022/07/17 04:16:48;;;;;;;0.75;0.75;;;;;;;18.80;64.30;100307.69;1760670;80;21005;-77
2022/07/17 04:19:16;;;;;;;4.35;0.62;;;;;;;19.18;62.09;100300.75;1754375;80;21037;-77
2022/07/17 04:21:42;;;;;;;;;;;;;;;19.39;60.53;100300.52;1760735;80;21037;-76
2022/07/17 04:24:08;;;;;;;1.85;0.42;;;;;;;19.42;59.99;100304.60;1754892;80;20141;-76
2022/07/17 04:26:36;;;;;;;1.22;0.40;;;;;;;19.30;60.44;100300.65;1745521;80;21010;-77
2022/07/17 04:29:02;;;;;;;1.95;1.12;;;;;;;19.56;61.21;100299.14;1759380;80;21044;-75
2022/07/17 04:31:29;;;;;;;2.52;0.80;;;;;;;20.29;59.55;100305.78;1753851;80;20963;-77
2022/07/17 04:33:55;;;;;;;1.05;0.60;;;;;;;21.25;55.66;100308.84;1759083;80;21549;-77
2022/07/17 04:36:21;;;;;;;;;;;;;;;22.28;51.93;100311.09;1761002;80;21037;-76
2022/07/17 04:38:47;;;;;;;2.62;1.87;;;;;;;23.21;48.35;100303.06;1755683;80;20125;-77
2022/07/17 04:41:13;;;;;;;1.20;1.10;;;;;;;23.91;46.18;100305.92;1754546;80;21400;-76
2022/07/17 04:43:39;;;;;;;5.35;0.95;;;;;;;24.44;44.75;100306.75;1760004;80;21512;-74
2022/07/17 04:46:06;;;;;;;1.10;0.57;;;;;;;24.89;43.29;100300.74;1760304;80;21017;-73
2022/07/17 04:48:32;;;;;;;1.05;0.53;;;;;;;25.39;43.08;100305.52;1760236;80;21068;-72
2022/07/17 04:50:58;;;;;;;0.75;0.42;;;;;;;25.82;40.48;100301.50;1760308;80;21008;-74
2022/07/17 04:53:25;;;;;;;1.45;0.57;;;;;;;25.97;39.57;100307.89;1756296;80;21056;-74
2022/07/17 04:55:51;;;;;;;1.42;0.55;;;;;;;25.99;38.98;100300.22;1759901;79;21071;-72
2022/07/17 04:58:18;;;;;;;0.62;0.25;;;;;;;25.80;39.06;100296.86;1754875;80;21061;-73
2022/07/17 05:00:45;;;;;;;3.45;0.60;;;;;;;25.80;41.32;100290.59;1760397;80;20977;-69
2022/07/17 05:03:11;;;;;;;1.45;0.50;;;;;;;25.95;39.02;100286.89;1760302;80;21022;-74
2022/07/17 05:05:40;;;;;;;0.95;0.70;;;;;;;25.96;39.29;100286.61;1755907;80;21569;-73
2022/07/17 05:08:05;;;;;;;1.57;0.25;;;;;;;25.82;39.23;100282.39;1742474;80;21459;-77
2022/07/17 05:10:31;;;;;;;0.90;0.30;;;;;;;25.47;39.18;100274.58;1747298;80;21117;-71
2022/07/17 05:12:57;;;;;;;1.85;0.57;;;;;;;25.22;39.33;100278.64;1754176;80;21093;-72
2022/07/17 05:15:25;;;;;;;0.60;0.35;;;;;;;25.16;39.61;100281.69;1746755;80;21117;-70
2022/07/17 05:17:53;;;;;;;2.72;0.47;;;;;;;25.28;38.58;100280.80;1744689;80;21084;-77
2022/07/17 05:20:19;;;;;;;1.32;0.40;;;;;;;25.50;38.68;100289.83;1758769;80;21017;-75
2022/07/17 05:22:45;;;;;;;2.08;0.50;;;;;;;25.74;37.70;100286.30;1760418;80;21049;-75
2022/07/17 05:25:11;;;;;;;1.40;0.37;;;;;;;25.84;37.52;100291.09;1758123;80;21064;-75
2022/07/17 05:27:38;;;;;;;2.83;0.50;;;;;;;25.95;37.38;100288.26;1761900;80;21036;-76
2022/07/17 05:30:06;;;;;;;2.60;0.53;;;;;;;25.88;37.03;100291.33;1755619;80;22250;-75
2022/07/17 05:32:34;;;;;;;2.33;0.28;;;;;;;25.82;37.56;100297.41;1750322;80;21029;-74
2022/07/17 05:35:01;;;;;;;2.42;0.50;;;;;;;25.99;37.52;100289.30;1754359;80;21005;-71
2022/07/17 05:37:27;;;;;;;1.60;0.20;;;;;;;26.08;36.37;100284.00;1752403;80;21033;-74
2022/07/17 05:39:54;;;;;;;3.75;0.50;;;;;;;26.01;36.32;100276.16;1758354;80;21009;-73
2022/07/17 05:42:21;;;;;;;0.78;0.40;;;;;;;26.09;35.78;100280.98;1758999;80;21096;-74
2022/07/17 05:44:47;;;;;;;0.88;0.40;;;;;;;26.08;37.03;100279.91;1759578;80;20985;-70
2022/07/17 05:47:13;;;;;;;2.87;0.45;;;;;;;26.14;36.40;100264.50;1752784;80;21006;-71
2022/07/17 05:49:40;;;;;;;2.60;0.30;;;;;;;26.38;36.25;100273.20;1754203;80;21478;-71
2022/07/17 05:52:07;;;;;;;2.30;0.75;;;;;;;26.40;34.21;100275.08;1761610;80;21081;-72
2022/07/17 05:54:34;;;;;;;1.05;0.30;;;;;;;26.14;35.85;100289.65;1754489;80;21060;-71
2022/07/17 05:57:01;;;;;;;0.78;0.45;;;;;;;25.87;34.60;100294.34;1754664;80;21073;-72
2022/07/17 05:59:27;;;;;;;5.03;2.37;;;;;;;25.38;35.71;100291.59;1756149;80;21145;-70
2022/07/17 06:01:53;;;;;;;1.10;1.10;;;;;;;25.00;35.40;100282.39;1758333;80;21600;-71
2022/07/17 06:04:20;;;;;;;2.67;1.70;;;;;;;24.87;35.35;100275.13;1759252;80;21072;-73
2022/07/17 06:06:46;;;;;;;1.27;0.40;;;;;;;24.89;36.25;100277.57;1749573;80;21021;-72
2022/07/17 06:09:12;;;;;;;2.02;0.90;;;;;;;24.80;35.46;100286.89;1746169;80;21096;-73
2022/07/17 06:11:39;;;;;;;1.22;0.57;;;;;;;24.45;35.93;100293.41;1745679;80;21006;-71
2022/07/17 06:14:05;;;;;;;1.15;0.15;;;;;;;24.09;36.53;100288.97;1756987;80;21033;-72
2022/07/17 06:16:32;;;;;;;13.75;12.73;;;;;;;23.70;36.76;100294.27;1754257;80;21164;-73
2022/07/17 06:18:58;;;;;;;3.47;3.17;;;;;;;23.31;40.50;100296.25;1757305;80;21049;-71
2022/07/17 06:21:25;;;;;;;0.93;0.55;;;;;;;23.17;38.85;100300.08;1758150;80;22200;-71
2022/07/17 06:23:51;;;;;;;1.27;0.40;;;;;;;22.97;39.17;100307.66;1751088;80;21057;-71
2022/07/17 06:26:18;;;;;;;3.08;2.60;;;;;;;22.70;39.91;100310.09;1759235;80;21029;-75
2022/07/17 06:28:45;;;;;;;1.57;0.80;;;;;;;22.46;41.58;100315.20;1761064;80;21061;-74
2022/07/17 06:31:12;;;;;;;3.98;3.65;;;;;;;22.24;42.00;100319.44;1756501;80;21187;-81
2022/07/17 06:33:38;;;;;;;4.35;3.12;;;;;;;22.02;42.96;100323.72;1751013;80;21028;-72
2022/07/17 06:36:05;;;;;;;3.52;0.88;;;;;;;21.76;44.04;100316.80;1753290;80;21013;-75
2022/07/17 06:38:33;;;;;;;5.25;3.60;;;;;;;21.68;44.29;100326.80;1751615;80;21092;-82
2022/07/17 06:41:01;;;;;;;3.50;2.87;;;;;;;21.55;44.73;100335.41;1755592;80;21029;-81
2022/07/17 06:43:28;;;;;;;2.58;0.40;;;;;;;21.41;44.82;100349.91;1749450;80;21258;-71
2022/07/17 06:45:55;;;;;;;1.65;0.50;;;;;;;21.30;45.02;100349.55;1720223;81;21538;-82
2022/07/17 06:48:23;;;;;;;4.08;3.77;;;;;;;21.10;45.69;100351.03;1729944;81;20978;-82
2022/07/17 06:50:50;;;;;;;2.47;2.08;;;;;;;20.88;47.03;100350.28;1724134;81;21513;-74
2022/07/17 06:53:16;;;;;;;1.00;0.90;;;;;;;20.43;47.31;100303.48;1730360;81;21045;-77
2022/07/17 06:55:42;;;;;;;2.02;1.05;;;;;;;20.56;47.93;100362.65;1724356;81;21535;-81
2022/07/17 06:58:08;;;;;;;;;;;;;;;20.33;48.59;100369.16;1732063;81;21018;-82
2022/07/17 07:00:35;;;;;;;3.77;1.37;;;;;;;20.16;51.36;100376.53;1728604;81;20109;-79
2022/07/17 07:03:02;;;;;;;1.10;0.82;;;;;;;19.99;49.83;100388.75;1723795;81;21014;-84
2022/07/17 07:05:29;;;;;;;4.65;1.12;;;;;;;19.74;49.76;100389.19;1728286;81;21022;-81
2022/07/17 07:07:55;;;;;;;0.85;0.57;;;;;;;19.48;50.54;100386.08;1728592;81;21048;-81
2022/07/17 07:10:22;;;;;;;3.40;0.78;;;;;;;19.31;50.82;100379.83;1727121;81;20994;-82
2022/07/17 07:12:50;;;;;;;1.35;0.70;;;;;;;19.16;51.48;100382.58;1708935;83;21028;-82
2022/07/17 07:15:18;;;;;;;2.20;2.02;;;;;;;19.06;52.42;100383.73;1726763;81;22271;-81
2022/07/17 07:17:45;;;;;;;1.17;1.07;;;;;;;19.03;52.84;100382.89;1725203;81;21213;-82
2022/07/17 07:20:12;;;;;;;2.70;2.50;;;;;;;19.04;52.92;100380.47;1730086;81;21080;-79
2022/07/17 07:22:39;;;;;;;2.33;1.00;;;;;;;19.04;52.29;100391.27;1728152;81;21173;-81
2022/07/17 07:25:07;;;;;;;2.27;0.60;;;;;;;19.00;52.74;100396.87;1733723;81;21038;-83
2022/07/17 07:27:33;;;;;;;2.20;0.33;;;;;;;19.01;53.19;100398.53;1746764;80;21602;-83
2022/07/17 07:29:59;;;;;;;;;;;;;;;18.96;52.36;100403.83;1717818;82;20999;-80
2022/07/17 07:32:26;;;;;;;14.33;13.03;;;;;;;18.89;52.87;100416.11;1736999;81;20099;-81
2022/07/17 07:34:54;;;;;;;1.52;0.33;;;;;;;18.80;54.42;100421.10;1756138;80;20996;-79
2022/07/17 07:37:21;;;;;;;0.75;0.60;;;;;;;18.85;53.89;100414.97;1761904;80;21017;-76
2022/07/17 07:39:48;;;;;;;0.80;0.70;;;;;;;18.81;53.71;100426.77;1761564;80;20982;-81
2022/07/17 07:42:14;;;;;;;2.77;2.58;;;;;;;18.71;54.42;100425.75;1763280;80;21025;-81
2022/07/17 07:44:40;;;;;;;1.95;0.30;;;;;;;18.62;55.33;100421.25;1759261;80;21611;-81
2022/07/17 07:47:06;;;;;;;;;;;;;;;18.54;55.04;100435.94;1758700;80;21017;-71
2022/07/17 07:49:33;;;;;;;1.10;0.23;;;;;;;18.29;55.73;100430.84;1755954;80;20145;-73
2022/07/17 07:51:59;;;;;;;2.00;1.30;;;;;;;18.03;57.16;100436.20;1764550;80;21093;-71
2022/07/17 07:54:26;;;;;;;2.08;1.15;;;;;;;17.84;57.59;100432.77;1762499;80;21131;-73
2022/07/17 07:56:54;;;;;;;1.32;0.40;;;;;;;17.71;59.33;100433.28;1761089;80;21058;-73
2022/07/17 07:59:20;;;;;;;0.70;0.25;;;;;;;17.69;58.25;100431.34;1761600;80;21064;-72
2022/07/17 08:01:47;;;;;;;6.20;3.15;;;;;;;17.64;58.74;100435.79;1763848;80;21002;-71
2022/07/17 08:04:13;;;;;;;;;;;;;;;17.66;59.89;100433.68;1767979;80;21067;-71
2022/07/17 08:06:39;;;;;;;0.95;0.42;;;;;;;17.73;61.94;100437.09;1764111;80;20642;-73
2022/07/17 08:09:05;;;;;;;6.08;4.40;;;;;;;17.73;60.73;100430.89;1763074;80;21406;-72
2022/07/17 08:11:33;;;;;;;1.75;0.47;;;;;;;17.73;60.15;100451.11;1763946;80;22033;-72
2022/07/17 08:13:59;;;;;;;;;;;;;;;17.67;60.32;100445.58;1764313;80;21061;-70
2022/07/17 08:16:26;;;;;;;3.95;3.60;;;;;;;17.65;60.22;100445.00;1764238;80;20181;-71
2022/07/17 08:18:52;;;;;;;1.77;0.95;;;;;;;17.60;60.48;100447.56;1758366;80;21045;-71
2022/07/17 08:21:18;;;;;;;0.40;0.37;;;;;;;17.63;59.50;100451.15;1757087;80;21056;-72
2022/07/17 08:23:45;;;;;;;1.02;0.25;;;;;;;17.61;59.80;100449.22;1754407;80;22333;-72
2022/07/17 08:26:11;;;;;;;1.70;0.72;;;;;;;17.57;60.26;100439.11;1758789;80;21048;-71
2022/07/17 08:28:37;;;;;;;1.57;0.50;;;;;;;17.59;61.62;100441.86;1759275;80;21052;-71
2022/07/17 08:31:03;;;;;;;;;;;;;;;17.76;60.74;100429.05;1762441;80;21300;-69
2022/07/17 08:33:29;;;;;;;1.45;0.30;;;;;;;18.01;60.03;100439.66;1759164;80;20963;-70
2022/07/17 08:35:55;;;;;;;0.45;0.25;;;;;;;18.16;58.89;100435.11;1754517;80;21109;-71
2022/07/17 08:39:29;;;;;;;3.08;2.83;;;;;;;18.18;59.11;100392.02;1800482;79;22930;-72
2022/07/17 08:41:55;;;;;;;6.53;0.80;;;;;;;18.48;58.99;100432.86;1777638;80;21085;-72
2022/07/17 08:44:22;;;;;;;0.57;0.30;;;;;;;18.64;59.00;100433.97;1762098;80;21834;-71
2022/07/17 08:46:48;;;;;;;1.25;0.28;;;;;;;18.79;57.60;100438.31;1655936;85;21081;-73
2022/07/17 08:49:20;;;;;;;0.70;0.40;;;;;;;18.83;56.69;100432.75;1674103;85;21146;-71
2022/07/17 08:51:48;;;;;;;0.93;0.20;;;;;;;18.77;56.74;100426.94;1681912;84;21140;-71
2022/07/17 08:54:15;;;;;;;1.20;0.50;;;;;;;18.68;56.67;100431.08;1682326;84;21125;-71
2022/07/17 08:56:42;;;;;;;1.12;0.50;;;;;;;18.55;57.95;100428.66;1682275;83;21093;-72
2022/07/17 08:59:08;;;;;;;0.80;0.50;;;;;;;18.51;58.32;100422.09;1698595;83;21092;-71
2022/07/17 09:01:34;;;;;;;;;;;;;;;18.48;57.99;100417.47;1701828;83;21061;-72
2022/07/17 09:04:07;;;;;;;1.42;0.20;;;;;;;18.51;58.84;100424.80;1672627;85;20177;-73
2022/07/17 09:06:35;;;;;;;1.67;0.65;;;;;;;18.48;58.58;100414.77;1671123;85;21129;-75
2022/07/17 09:09:06;;;;;;;2.75;0.78;;;;;;;18.49;58.74;100419.63;1698258;83;21046;-72
2022/07/17 09:11:50;;;;;;;0.30;0.30;;;;;;;18.57;58.71;100416.58;1692550;84;21050;-73
2022/07/17 09:14:19;;;;;;;1.15;0.45;;;;;;;18.68;57.99;100420.28;1681445;84;21101;-71
2022/07/17 09:16:57;;;;;;;2.22;1.57;;;;;;;18.77;56.25;100401.29;1682911;84;21501;-72
2022/07/17 09:19:34;;;;;;;0.65;0.65;;;;;;;18.89;56.74;100409.91;1674629;84;21541;-73
2022/07/17 09:22:23;;;;;;;1.37;0.68;;;;;;;19.09;55.92;100400.83;1668980;84;21025;-72
2022/07/17 09:24:56;;;;;;;0.37;0.30;;;;;;;19.26;54.11;100408.95;1667607;84;21054;-72
2022/07/17 09:27:31;;;;;;;0.60;0.60;;;;;;;19.38;53.52;100411.57;1703470;83;21051;-74
2022/07/17 09:30:11;;;;;;;3.20;2.90;;;;;;;19.42;52.30;100405.96;1671574;85;21049;-72
2022/07/17 09:32:40;;;;;;;4.03;0.80;;;;;;;19.43;52.39;100401.67;1671714;84;21595;-74
2022/07/17 09:35:10;;;;;;;0.85;0.20;;;;;;;19.50;51.59;100394.76;1672122;84;20982;-73
2022/07/17 09:37:38;;;;;;;0.25;0.25;;;;;;;19.52;51.32;100387.22;1695509;84;21198;-70
2022/07/17 09:42:57;;;;;;;0.47;0.30;;;;;;;19.51;49.42;100396.92;1698595;84;21114;-71
2022/07/17 09:45:24;;;;;;;1.00;0.15;;;;;;;19.51;49.21;100399.63;1699408;84;21036;-72
2022/07/17 09:47:53;;;;;;;0.72;0.60;;;;;;;19.53;47.49;100396.95;1699356;83;21039;-71
2022/07/17 09:50:20;;;;;;;0.10;0.10;;;;;;;19.55;43.49;100390.80;1692641;84;21586;-72
2022/07/17 09:52:49;;;;;;;1.17;0.28;;;;;;;19.56;39.69;100400.52;1697543;84;21021;-73
2022/07/17 09:55:17;;;;;;;1.57;0.20;;;;;;;19.52;40.26;100396.68;1695275;83;21039;-72
2022/07/17 09:57:47;;;;;;;0.80;0.80;;;;;;;19.51;40.50;100415.30;1665208;85;21089;-72
2022/07/17 10:00:15;;;;;;;0.75;0.10;;;;;;;19.52;42.02;100410.73;1693274;83;21585;-74
2022/07/17 10:02:43;;;;;;;0.10;0.10;;;;;;;19.55;42.25;100416.47;1701310;83;21220;-70
2022/07/17 10:05:12;;;;;;;0.08;0.00;;;;;;;19.59;41.73;100423.53;1702931;83;21068;-74
2022/07/17 10:07:45;;;;;;;0.65;0.50;;;;;;;19.55;42.03;100412.42;1696870;84;21061;-73
2022/07/17 10:10:16;;;;;;;0.47;0.10;;;;;;;19.47;43.53;100414.16;1693098;83;21084;-74
2022/07/17 10:12:46;;;;;;;0.10;0.10;;;;;;;19.43;43.82;100411.66;1652137;85;21612;-72
2022/07/17 10:15:14;;;;;;;0.33;0.10;;;;;;;19.47;44.21;100397.94;1656266;85;21048;-73
2022/07/17 10:17:41;;;;;;;0.30;0.20;;;;;;;19.53;44.54;100401.00;1627044;86;21089;-71
2022/07/17 10:20:10;;;;;;;0.35;0.10;;;;;;;19.60;44.50;100390.04;1648723;85;21037;-72
2022/07/17 10:22:46;;;;;;;0.82;0.10;;;;;;;19.63;45.17;100394.42;1650351;84;21032;-71
2022/07/17 10:25:17;;;;;;;0.97;0.60;;;;;;;19.71;45.54;100393.72;1671513;84;21405;-73
2022/07/17 10:27:53;;;;;;;1.92;0.20;;;;;;;19.84;45.82;100392.87;1673440;84;21533;-73
2022/07/17 10:30:29;;;;;;;0.30;0.10;;;;;;;19.97;44.52;100379.52;1675636;84;21092;-70
2022/07/17 10:32:59;;;;;;;0.95;0.75;;;;;;;20.07;44.31;100394.27;1670031;84;21038;-72
2022/07/17 10:35:28;;;;;;;1.10;0.20;;;;;;;20.05;43.99;100382.87;1677040;84;21069;-74
2022/07/17 10:38:12;;;;;;;0.60;0.42;;;;;;;20.00;44.33;100376.33;1669221;84;21083;-73
2022/07/17 10:40:38;;;;;;;0.23;0.20;;;;;;;20.07;45.01;100383.44;1657923;84;21598;-72
2022/07/17 10:43:06;;;;;;;1.32;0.10;;;;;;;20.18;44.69;100371.14;1675720;84;21061;-72
2022/07/17 10:45:44;;;;;;;1.90;0.50;;;;;;;20.32;44.34;100372.11;1675123;84;21078;-72
2022/07/17 10:48:21;;;;;;;2.45;1.27;;;;;;;20.40;44.40;100366.27;1667082;85;21084;-73
2022/07/17 10:50:52;;;;;;;2.50;2.35;;;;;;;20.47;44.48;100370.13;1662123;84;21519;-72
2022/07/17 10:53:24;;;;;;;0.50;0.35;;;;;;;20.54;42.66;100368.86;1674409;84;21061;-72
2022/07/17 10:56:04;;;;;;;1.98;1.87;;;;;;;20.54;41.97;100361.28;1670454;84;21055;-72
2022/07/17 10:58:36;;;;;;;0.68;0.50;;;;;;;20.53;42.07;100360.47;1651614;85;21036;-71
2022/07/17 11:01:16;;;;;;;1.00;0.13;;;;;;;20.55;41.03;100353.42;1646178;85;21510;-72
2022/07/17 11:03:48;;;;;;;2.50;0.10;;;;;;;20.54;40.85;100365.34;1646912;85;21056;-74
2022/07/17 11:06:19;;;;;;;1.85;1.22;;;;;;;20.51;40.89;100367.19;1652175;85;21047;-72
2022/07/17 11:08:59;;;;;;;0.40;0.10;;;;;;;20.46;41.30;100370.67;1651870;85;21024;-73
2022/07/17 11:11:49;;;;;;;0.13;0.10;;;;;;;20.40;41.25;100380.63;1618661;85;21073;-71
2022/07/17 11:14:24;;;;;;;2.60;0.60;;;;;;;20.33;42.16;100375.92;1698248;83;21490;-71
2022/07/17 11:16:59;;;;;;;1.12;0.20;;;;;;;20.35;42.77;100380.55;1660984;85;21678;-74
2022/07/17 11:19:38;;;;;;;0.10;0.10;;;;;;;20.46;42.17;100365.80;1677625;84;21340;-72
2022/07/17 11:22:09;;;;;;;0.33;0.20;;;;;;;20.55;41.61;100369.16;1650303;85;21081;-72
2022/07/17 11:24:48;;;;;;;0.13;0.00;;;;;;;20.61;42.36;100369.52;1681159;83;21122;-73
2022/07/17 11:27:27;;;;;;;1.92;0.17;;;;;;;20.69;41.54;100368.23;1678586;84;21100;-71
2022/07/17 11:29:57;;;;;;;0.10;0.10;;;;;;;20.66;41.96;100371.44;1685090;83;21117;-71
2022/07/17 11:32:33;;;;;;;0.40;0.40;;;;;;;20.62;41.66;100368.97;1679981;84;21524;-71
2022/07/17 11:35:00;;;;;;;0.17;0.10;;;;;;;20.60;42.00;100373.28;1668328;84;21033;-72
2022/07/17 11:37:30;;;;;;;0.75;0.10;;;;;;;20.54;41.45;100372.92;1678906;83;22006;-69